Bookmark and Share
Track history (hours):
 

Valgardena

Last reported at 2014-Apr-16 11:24 UTC. Time now 2014-Apr-16 19:22 UTC.
Position N 37°31' W 000°38'.

Length 184 m; draft 10.9 m.

Type: Ship. MMSI: 247243800.

NotesDate/timePositionNaut miles runAvg speedWind from/ knotsBaromVisibWave heightAir tempDewpointWater temp
2014-Apr-16 11:24N 37°31' W 000°38'1113.1
2014-Apr-16 10:32N 37°40' W 000°29'2813.4
2014-Apr-16 08:27N 38°03' W 000°10'7813.0
2014-Apr-16 02:28N 39°10' E 000°42'4013.8
2014-Apr-15 23:33N 39°45' E 001°07'1413.8
2014-Apr-15 22:33N 39°57' E 001°15'1413.7
2014-Apr-15 21:33N 40°09' E 001°24'1413.8
2014-Apr-15 20:33N 40°21' E 001°32'1414.2
2014-Apr-15 19:34N 40°34' E 001°41'1313.2
2014-Apr-15 18:33N 40°45' E 001°50'1514.8
2014-Apr-15 17:33N 40°56' E 002°03'10 9.7
2014-Apr-15 16:30N 41°05' E 002°10'1112.0
2014-Apr-15 15:33N 41°16' E 002°11'5 0.2
2014-Apr-14 18:34N 41°21' E 002°09'3 2.8
2014-Apr-14 17:33N 41°19' E 002°12'0 0.1
2014-Apr-14 14:32N 41°19' E 002°12'0 0.0
2014-Apr-14 13:32N 41°19' E 002°12'0 0.0
2014-Apr-14 05:32N 41°19' E 002°12'0 0.0
2014-Apr-13 22:26N 41°19' E 002°12'0 0.0
2014-Apr-13 21:32N 41°19' E 002°12'0 0.0
2014-Apr-13 20:32N 41°19' E 002°12'0 0.0
2014-Apr-13 18:20N 41°19' E 002°12'0 0.0
2014-Apr-13 12:32N 41°19' E 002°12'0 0.0
2014-Apr-13 10:28N 41°19' E 002°12'0 0.0
2014-Apr-13 02:26N 41°19' E 002°12'0 0.0
2014-Apr-13 00:26N 41°19' E 002°12'0 0.0
2014-Apr-12 21:16N 41°19' E 002°12'0 0.0
2014-Apr-12 20:20N 41°19' E 002°12'0 0.0
2014-Apr-12 18:29N 41°19' E 002°12'9 9.2
2014-Apr-12 17:28N 41°19' E 002°25'1213.5
2014-Apr-12 16:33N 41°22' E 002°41'1613.7
2014-Apr-12 15:25N 41°27' E 003°00'1314.5
2014-Apr-12 14:32N 41°30' E 003°17'1313.1
2014-Apr-12 13:32N 41°34' E 003°34'1414.2
2014-Apr-12 12:31N 41°38' E 003°52'1313.6
2014-Apr-12 11:33N 41°42' E 004°09'1313.0
2014-Apr-12 10:33N 41°45' E 004°26'2913.6
2014-Apr-12 08:23N 41°53' E 005°04'1412.8
2014-Apr-12 07:18N 41°57' E 005°22'1013.3
2014-Apr-12 06:33N 42°00' E 005°35'6612.9
2014-Apr-12 01:25N 42°24' E 006°58'1413.2
2014-Apr-12 00:21N 42°30' E 007°15'10012.8
2014-Apr-11 16:33N 43°11' E 009°19'1313.0
2014-Apr-11 15:33N 43°14' E 009°37'1313.2
2014-Apr-11 14:33N 43°17' E 009°54'1312.8
2014-Apr-11 13:33N 43°26' E 010°07'1010.3
2014-Apr-11 12:33N 43°33' E 010°17'1 0.6
2014-Apr-11 11:33N 43°34' E 010°18'0 0.0
2014-Apr-11 10:33N 43°34' E 010°18'0 0.0
2014-Apr-11 09:33N 43°34' E 010°18'0 0.0
2014-Apr-11 08:33N 43°34' E 010°18'0 0.0
2014-Apr-11 07:33N 43°34' E 010°18'0 0.0
2014-Apr-11 06:33N 43°34' E 010°18'0 0.0
2014-Apr-11 05:33N 43°34' E 010°18'0 0.0
2014-Apr-11 04:33N 43°34' E 010°18'0 0.0
2014-Apr-11 03:33N 43°34' E 010°18'0 0.0
2014-Apr-11 02:30N 43°34' E 010°18'0 0.0
2014-Apr-11 01:33N 43°34' E 010°18'0 0.0
2014-Apr-11 00:33N 43°34' E 010°18'0 0.0
2014-Apr-10 23:30N 43°34' E 010°18'0 0.0
2014-Apr-10 22:33N 43°34' E 010°18'0 0.0
2014-Apr-10 21:33N 43°34' E 010°18'0 0.0
2014-Apr-10 20:33N 43°34' E 010°18'0 0.0
2014-Apr-10 19:33N 43°34' E 010°18'0 0.0
2014-Apr-10 18:33N 43°34' E 010°18'0 0.0
2014-Apr-10 17:33N 43°34' E 010°18'0 0.0
2014-Apr-10 16:33N 43°34' E 010°18'0 0.0
2014-Apr-10 15:33N 43°34' E 010°18'0 0.0
2014-Apr-10 14:33N 43°34' E 010°18'0 0.0
2014-Apr-10 13:30N 43°34' E 010°18'0 0.0
2014-Apr-10 12:33N 43°34' E 010°18'0 0.0
2014-Apr-10 11:33N 43°34' E 010°18'0 0.0
2014-Apr-10 10:33N 43°34' E 010°18'0 0.0
2014-Apr-10 09:33N 43°34' E 010°18'0 0.0
2014-Apr-10 08:33N 43°34' E 010°18'0 0.0
2014-Apr-10 07:33N 43°34' E 010°18'0 0.0
2014-Apr-10 06:30N 43°34' E 010°18'0 0.0
2014-Apr-10 05:33N 43°34' E 010°18'0 0.0
2014-Apr-10 04:33N 43°34' E 010°18'0 0.0
2014-Apr-10 03:33N 43°34' E 010°18'0 0.0
2014-Apr-10 02:33N 43°34' E 010°18'0 0.0
2014-Apr-10 01:33N 43°34' E 010°18'0 0.0
2014-Apr-10 00:33N 43°34' E 010°18'0 0.0
2014-Apr-09 23:33N 43°34' E 010°18'0 0.0
2014-Apr-09 22:33N 43°34' E 010°18'0 0.0
2014-Apr-09 21:33N 43°34' E 010°18'0 0.0
2014-Apr-09 20:33N 43°34' E 010°18'0 0.0
2014-Apr-09 19:33N 43°34' E 010°18'0 0.0
2014-Apr-09 18:33N 43°34' E 010°18'0 0.0
2014-Apr-09 17:33N 43°34' E 010°18'0 0.0
2014-Apr-09 16:33N 43°34' E 010°18'0 0.0
2014-Apr-09 15:33N 43°34' E 010°18'0 0.0
2014-Apr-09 14:30N 43°34' E 010°18'0 0.0
2014-Apr-09 13:33N 43°34' E 010°18'0 0.0
2014-Apr-09 12:33N 43°34' E 010°18'0 0.0
2014-Apr-09 11:33N 43°34' E 010°18'0 0.0
2014-Apr-09 10:33N 43°34' E 010°18'0 0.0
2014-Apr-09 09:33N 43°34' E 010°18'0 0.0
2014-Apr-09 08:33N 43°34' E 010°18'0 0.0
2014-Apr-09 07:33N 43°34' E 010°18'0 0.0
2014-Apr-09 06:33N 43°34' E 010°18'0 0.0
2014-Apr-09 05:30N 43°34' E 010°18'0 0.0
2014-Apr-09 04:30N 43°34' E 010°18'0 0.0
2014-Apr-09 03:33N 43°34' E 010°18'0 0.0
2014-Apr-09 02:33N 43°34' E 010°18'0 0.0
2014-Apr-09 01:33N 43°34' E 010°18'0 0.0
2014-Apr-09 00:33N 43°34' E 010°18'0 0.0
2014-Apr-08 23:33N 43°34' E 010°18'0 0.0
2014-Apr-08 22:33N 43°34' E 010°18'0 0.0
2014-Apr-08 21:33N 43°34' E 010°18'0 0.0
2014-Apr-08 20:33N 43°34' E 010°18'0 0.0
2014-Apr-08 19:33N 43°34' E 010°18'0 0.0
2014-Apr-08 18:33N 43°34' E 010°18'0 0.0
2014-Apr-08 17:33N 43°34' E 010°18'0 0.0
2014-Apr-08 16:33N 43°34' E 010°18'0 0.0
2014-Apr-08 15:27N 43°34' E 010°18'0 0.0
2014-Apr-08 14:33N 43°34' E 010°18'0 0.0
2014-Apr-08 13:33N 43°34' E 010°18'0 0.0
2014-Apr-08 12:33N 43°34' E 010°18'4 3.9
2014-Apr-08 11:33N 43°30' E 010°17'0 0.2
2014-Apr-08 10:32N 43°30' E 010°17'0 0.0
2014-Apr-08 09:32N 43°30' E 010°17'0 0.0
2014-Apr-08 08:32N 43°30' E 010°17'0 0.0
2014-Apr-08 07:32N 43°30' E 010°17'0 0.0
2014-Apr-08 06:32N 43°30' E 010°17'0 0.0
2014-Apr-08 05:29N 43°30' E 010°17'0 0.0
2014-Apr-08 04:32N 43°30' E 010°17'0 0.0
2014-Apr-08 03:32N 43°30' E 010°17'0 0.0
2014-Apr-08 02:32N 43°30' E 010°17'0 0.0
2014-Apr-08 01:32N 43°30' E 010°17'0 0.0
2014-Apr-08 00:32N 43°30' E 010°17'0 0.0
2014-Apr-07 23:32N 43°30' E 010°17'0 0.0
2014-Apr-07 22:32N 43°30' E 010°17'0 0.1
2014-Apr-07 21:32N 43°30' E 010°17'0 0.0
2014-Apr-07 20:32N 43°30' E 010°17'0 0.0
2014-Apr-07 19:32N 43°30' E 010°17'0 0.0
2014-Apr-07 17:32N 43°30' E 010°17'0 0.0
2014-Apr-07 16:32N 43°30' E 010°17'0 0.0
2014-Apr-07 15:32N 43°30' E 010°17'0 0.0
2014-Apr-07 14:29N 43°30' E 010°17'0 0.0
2014-Apr-07 13:32N 43°30' E 010°17'0 0.0
2014-Apr-07 12:29N 43°30' E 010°17'0 0.0
2014-Apr-07 11:32N 43°30' E 010°17'0 0.0
2014-Apr-07 10:32N 43°30' E 010°17'0 0.0
2014-Apr-07 09:32N 43°30' E 010°17'0 0.0
2014-Apr-07 08:29N 43°30' E 010°17'0 0.0
2014-Apr-07 07:32N 43°30' E 010°17'0 0.0
2014-Apr-07 06:32N 43°30' E 010°17'0 0.1
2014-Apr-07 05:32N 43°30' E 010°17'0 0.0
2014-Apr-07 04:32N 43°30' E 010°17'0 0.0
2014-Apr-07 03:32N 43°30' E 010°17'0 0.0
2014-Apr-07 02:32N 43°30' E 010°17'0 0.1
2014-Apr-07 01:32N 43°30' E 010°17'0 0.0
2014-Apr-07 00:32N 43°30' E 010°17'0 0.1
2014-Apr-06 23:32N 43°30' E 010°17'0 0.0
2014-Apr-06 22:32N 43°30' E 010°17'0 0.0
2014-Apr-06 21:32N 43°30' E 010°17'0 0.0
2014-Apr-06 20:32N 43°30' E 010°17'0 0.0
2014-Apr-06 19:32N 43°30' E 010°17'0 0.0
2014-Apr-06 18:32N 43°30' E 010°17'0 0.0
2014-Apr-06 17:32N 43°30' E 010°17'0 0.0
2014-Apr-06 16:32N 43°30' E 010°17'0 0.0
2014-Apr-06 15:32N 43°30' E 010°17'0 0.0
2014-Apr-06 14:32N 43°30' E 010°17'0 0.0
2014-Apr-06 13:32N 43°30' E 010°17'0 0.0
2014-Apr-06 12:32N 43°30' E 010°17'0 0.0
2014-Apr-06 11:32N 43°30' E 010°17'  

Dump ship's entire track history

sailing weather and tide predictions

Valgardena — ICKG — position and weather